Time;durP1;ratioP1;P1;durP2;ratioP2;P2;SDS_P1;SDS_P2;PMS_P1;PMS_P2;Temp;Humidity;BMP_temperature;BMP_pressure;BME280_temperature;BME280_humidity;BME280_pressure;Samples;Min_cycle;Max_cycle;Signal;HPM_P1;HPM_P2
2022/04/14 00:00:55;;;;;;;;;;;13.30;99.90;;;;;;5004850;28;19906;-88
2022/04/14 00:03:21;;;;;;;;;;;13.30;99.90;;;;;;5003403;28;19906;-88
2022/04/14 00:05:46;;;;;;;;;;;13.20;99.90;;;;;;5004059;28;19918;-88
2022/04/14 00:08:12;;;;;;;;;;;13.20;99.90;;;;;;5004594;28;19925;-88
2022/04/14 00:10:37;;;;;;;;;;;13.20;99.90;;;;;;5003429;28;19906;-88
2022/04/14 00:13:03;;;;;;;;;;;13.20;99.90;;;;;;5004520;28;19906;-88
2022/04/14 00:15:28;;;;;;;;;;;13.10;99.90;;;;;;5004412;28;19906;-88
2022/04/14 00:17:54;;;;;;;;;;;13.20;99.90;;;;;;5004071;28;19906;-88
2022/04/14 00:20:20;;;;;;;;;;;13.20;99.90;;;;;;5003363;28;19928;-88
2022/04/14 00:22:45;;;;;;;;;;;13.20;99.90;;;;;;5004377;28;19906;-88
2022/04/14 00:25:11;;;;;;;;;;;13.20;99.90;;;;;;5004293;28;19910;-89
2022/04/14 00:27:37;;;;;;;;;;;13.20;99.90;;;;;;5003735;28;20173;-88
2022/04/14 00:30:04;;;;;;;;;;;13.20;99.90;;;;;;5002913;28;19945;-88
2022/04/14 00:32:31;;;;;;;;;;;13.20;99.90;;;;;;5003795;28;19944;-88
2022/04/14 00:34:57;;;;;;;;;;;13.20;99.90;;;;;;5002039;28;19905;-88
2022/04/14 00:37:22;;;;;;;;;;;13.10;99.90;;;;;;5003863;28;19913;-88
2022/04/14 00:39:50;;;;;;;;;;;13.20;99.90;;;;;;5003928;28;19913;-88
2022/04/14 00:42:16;;;;;;;;;;;13.10;99.90;;;;;;5002841;28;19981;-88
2022/04/14 00:44:41;;;;;;;;;;;13.10;99.90;;;;;;5004053;28;19909;-88
2022/04/14 00:47:07;;;;;;;;;;;13.10;99.90;;;;;;5002760;28;19937;-88
2022/04/14 00:49:33;;;;;;;;;;;13.10;99.90;;;;;;5001809;28;19909;-88
2022/04/14 00:52:00;;;;;;;;;;;13.10;99.90;;;;;;5002024;28;19914;-88
2022/04/14 00:54:25;;;;;;;;;;;13.00;99.90;;;;;;5003649;28;20186;-88
2022/04/14 00:56:51;;;;;;;;;;;13.00;99.90;;;;;;5003636;28;19956;-88
2022/04/14 00:59:16;;;;;;;;;;;12.90;99.90;;;;;;5001053;28;19914;-88
2022/04/14 01:01:42;;;;;;;;;;;12.90;99.90;;;;;;5001273;28;20241;-88
2022/04/14 01:04:09;;;;;;;;;;;13.00;99.90;;;;;;5001384;28;19912;-88
2022/04/14 01:06:37;;;;;;;;;;;12.90;99.90;;;;;;4999661;28;19936;-88
2022/04/14 01:09:21;;;;;;;;;;;12.90;99.90;;;;;;5001230;28;19917;-88
2022/04/14 01:11:50;;;;;;;;;;;12.90;99.90;;;;;;5002543;28;20199;-89
2022/04/14 01:14:21;;;;;;;;;;;12.90;99.90;;;;;;5002558;28;19913;-88
2022/04/14 01:16:47;;;;;;;;;;;12.80;99.90;;;;;;5002076;28;20157;-88
2022/04/14 01:19:12;;;;;;;;;;;12.80;99.90;;;;;;5001227;28;19989;-88
2022/04/14 01:21:41;;;;;;;;;;;12.80;99.90;;;;;;5002053;28;19906;-88
2022/04/14 01:24:09;;;;;;;;;;;12.80;99.90;;;;;;5002911;28;19906;-88
2022/04/14 01:26:36;;;;;;;;;;;12.80;99.90;;;;;;5000376;28;20136;-88
2022/04/14 01:29:05;;;;;;;;;;;12.70;99.90;;;;;;5000870;28;19945;-88
2022/04/14 01:31:31;;;;;;;;;;;12.80;99.90;;;;;;5002889;28;19964;-88
2022/04/14 01:33:57;;;;;;;;;;;12.70;99.90;;;;;;5002909;28;19961;-88
2022/04/14 01:36:22;;;;;;;;;;;12.70;99.90;;;;;;5002014;28;19921;-88
2022/04/14 01:38:51;;;;;;;;;;;12.70;99.90;;;;;;5002871;28;19918;-88
2022/04/14 01:41:16;;;;;;;;;;;12.70;99.90;;;;;;5001847;28;19905;-88
2022/04/14 01:43:43;;;;;;;;;;;12.70;99.90;;;;;;5002735;28;19917;-88
2022/04/14 01:46:09;;;;;;;;;;;12.60;99.90;;;;;;5002744;28;19921;-88
2022/04/14 01:48:38;;;;;;;;;;;12.60;99.90;;;;;;5002022;28;19937;-88
2022/04/14 01:51:03;;;;;;;;;;;12.50;99.90;;;;;;5002499;28;20137;-88
2022/04/14 01:53:29;;;;;;;;;;;12.50;99.90;;;;;;5002452;28;19909;-88
2022/04/14 01:55:54;;;;;;;;;;;12.40;99.90;;;;;;5001013;28;19910;-88
2022/04/14 01:58:20;;;;;;;;;;;12.40;99.90;;;;;;5002543;28;19913;-88
2022/04/14 02:00:45;;;;;;;;;;;12.40;99.90;;;;;;5002489;28;19905;-88
2022/04/14 02:03:11;;;;;;;;;;;12.40;99.90;;;;;;5002251;28;20168;-88
2022/04/14 02:05:36;;;;;;;;;;;12.30;99.90;;;;;;5001394;28;20223;-88
2022/04/14 02:08:02;;;;;;;;;;;12.30;99.90;;;;;;5000828;28;20225;-88
2022/04/14 02:10:27;;;;;;;;;;;12.30;99.90;;;;;;5001996;28;19933;-88
2022/04/14 02:12:53;;;;;;;;;;;12.30;99.90;;;;;;5000569;28;19912;-88
2022/04/14 02:15:19;;;;;;;;;;;12.30;99.90;;;;;;5000716;28;19906;-88
2022/04/14 02:17:45;;;;;;;;;;;12.20;99.90;;;;;;5000902;28;19916;-88
2022/04/14 02:20:10;;;;;;;;;;;12.20;99.90;;;;;;5001063;28;20106;-88
2022/04/14 02:22:42;;;;;;;;;;;12.20;99.90;;;;;;5000052;28;20094;-88
2022/04/14 02:25:11;;;;;;;;;;;12.20;99.90;;;;;;5002248;28;20155;-88
2022/04/14 02:27:36;;;;;;;;;;;12.20;99.90;;;;;;5002197;28;19921;-88
2022/04/14 02:30:03;;;;;;;;;;;12.20;99.90;;;;;;5002264;28;19914;-88
2022/04/14 02:32:29;;;;;;;;;;;12.20;99.90;;;;;;5001860;28;20165;-88
2022/04/14 02:34:54;;;;;;;;;;;12.10;99.90;;;;;;5001691;28;19906;-89
2022/04/14 02:37:20;;;;;;;;;;;12.10;99.90;;;;;;5002049;28;20209;-88
2022/04/14 02:39:45;;;;;;;;;;;12.10;99.90;;;;;;4999943;28;20134;-89
2022/04/14 02:42:11;;;;;;;;;;;12.10;99.90;;;;;;5001233;28;19934;-88
2022/04/14 02:44:37;;;;;;;;;;;12.00;99.90;;;;;;5002169;28;19913;-89
2022/04/14 02:47:02;;;;;;;;;;;12.00;99.90;;;;;;5001647;28;19921;-88
2022/04/14 02:49:28;;;;;;;;;;;12.00;99.90;;;;;;5000792;28;19965;-88
2022/04/14 02:51:53;;;;;;;;;;;12.00;99.90;;;;;;5001439;28;19906;-88
2022/04/14 02:54:19;;;;;;;;;;;12.00;99.90;;;;;;5002008;28;19913;-88
2022/04/14 02:56:44;;;;;;;;;;;12.00;99.90;;;;;;5001714;28;20164;-88
2022/04/14 02:59:10;;;;;;;;;;;11.90;99.90;;;;;;4999973;28;20098;-88
2022/04/14 03:01:35;;;;;;;;;;;12.00;99.90;;;;;;5001685;28;19937;-88
2022/04/14 03:04:01;;;;;;;;;;;11.90;99.90;;;;;;5001818;28;19906;-88
2022/04/14 03:06:27;;;;;;;;;;;11.90;99.90;;;;;;5000889;28;19913;-88
2022/04/14 03:08:52;;;;;;;;;;;11.90;99.90;;;;;;5001801;28;19918;-88
2022/04/14 03:11:18;;;;;;;;;;;11.90;99.90;;;;;;5000913;28;19906;-88
2022/04/14 03:13:43;;;;;;;;;;;11.90;99.90;;;;;;5001849;28;19910;-88
2022/04/14 03:16:09;;;;;;;;;;;11.90;99.90;;;;;;5000777;28;19906;-89
2022/04/14 03:18:34;;;;;;;;;;;11.80;99.90;;;;;;5000360;28;19913;-88
2022/04/14 03:21:01;;;;;;;;;;;11.80;99.90;;;;;;5001099;28;19913;-88
2022/04/14 03:23:26;;;;;;;;;;;11.80;99.90;;;;;;5002123;28;20367;-88
2022/04/14 03:25:52;;;;;;;;;;;11.80;99.90;;;;;;5004692;28;19918;-88
2022/04/14 03:28:18;;;;;;;;;;;11.80;99.90;;;;;;5005376;28;20094;-88
2022/04/14 03:30:43;;;;;;;;;;;11.80;99.90;;;;;;5005436;28;19905;-88
2022/04/14 03:33:09;;;;;;;;;;;11.80;99.90;;;;;;5003699;28;19964;-88
2022/04/14 03:35:34;;;;;;;;;;;11.70;99.90;;;;;;5002216;28;19909;-89
2022/04/14 03:38:00;;;;;;;;;;;11.70;99.90;;;;;;5005376;28;19914;-88
2022/04/14 03:40:25;;;;;;;;;;;11.70;99.90;;;;;;5005429;28;19981;-88
2022/04/14 03:42:51;;;;;;;;;;;11.70;99.90;;;;;;5003504;28;19912;-88
2022/04/14 03:45:16;;;;;;;;;;;11.70;99.90;;;;;;5002950;28;19906;-88
2022/04/14 03:47:42;;;;;;;;;;;11.70;99.90;;;;;;5004234;28;19980;-88
2022/04/14 03:50:07;;;;;;;;;;;11.60;99.90;;;;;;5002682;28;19905;-88
2022/04/14 03:52:33;;;;;;;;;;;11.70;99.90;;;;;;5004589;28;19965;-88
2022/04/14 03:54:58;;;;;;;;;;;11.60;99.90;;;;;;5004760;28;19975;-88
2022/04/14 03:57:24;;;;;;;;;;;11.60;99.90;;;;;;5005006;28;19906;-88
2022/04/14 03:59:50;;;;;;;;;;;11.60;99.90;;;;;;4998479;28;19906;-88
2022/04/14 04:02:16;;;;;;;;;;;11.60;99.90;;;;;;5004458;28;20032;-88
2022/04/14 04:04:41;;;;;;;;;;;11.60;99.90;;;;;;5005110;28;19913;-88
2022/04/14 04:07:07;;;;;;;;;;;11.60;99.90;;;;;;5004519;28;19993;-88
2022/04/14 04:09:33;;;;;;;;;;;11.50;99.90;;;;;;5003219;28;19940;-88
2022/04/14 04:11:59;;;;;;;;;;;11.50;99.90;;;;;;5003651;28;19944;-88
2022/04/14 04:14:25;;;;;;;;;;;11.50;99.90;;;;;;5004583;28;19906;-88
2022/04/14 04:16:50;;;;;;;;;;;11.40;99.90;;;;;;5002926;28;19906;-88
2022/04/14 04:19:16;;;;;;;;;;;11.50;99.90;;;;;;5004575;28;19929;-90
2022/04/14 04:21:42;;;;;;;;;;;11.40;99.90;;;;;;5002354;28;19906;-89
2022/04/14 04:24:07;;;;;;;;;;;11.40;99.90;;;;;;4992564;28;19951;-89
2022/04/14 04:26:33;;;;;;;;;;;11.40;99.90;;;;;;4991071;28;19921;-90
2022/04/14 04:28:58;;;;;;;;;;;11.40;99.90;;;;;;4991107;28;20285;-89
2022/04/14 04:31:24;;;;;;;;;;;11.40;99.90;;;;;;4992277;28;19910;-89
2022/04/14 04:33:51;;;;;;;;;;;11.40;99.90;;;;;;4990432;28;19910;-89
2022/04/14 04:36:19;;;;;;;;;;;11.40;99.90;;;;;;4992167;28;19909;-89
2022/04/14 04:38:45;;;;;;;;;;;11.40;99.90;;;;;;4991886;28;19910;-89
2022/04/14 04:41:10;;;;;;;;;;;11.40;99.90;;;;;;4988861;28;20188;-89
2022/04/14 04:43:36;;;;;;;;;;;11.40;99.90;;;;;;4992712;28;19910;-89
2022/04/14 04:46:02;;;;;;;;;;;11.30;99.90;;;;;;4992428;28;19967;-89
2022/04/14 04:48:27;;;;;;;;;;;11.30;99.90;;;;;;5001119;28;19944;-89
2022/04/14 04:50:53;;;;;;;;;;;11.30;99.90;;;;;;5003730;28;19915;-88
2022/04/14 04:53:18;;;;;;;;;;;11.30;99.90;;;;;;5004009;28;20090;-89
2022/04/14 04:55:44;;;;;;;;;;;11.20;99.90;;;;;;5000355;28;19928;-89
2022/04/14 04:58:09;;;;;;;;;;;11.20;99.90;;;;;;5001739;28;20194;-89
2022/04/14 05:00:35;;;;;;;;;;;11.20;99.90;;;;;;5000217;28;20374;-89
2022/04/14 05:03:01;;;;;;;;;;;11.10;99.90;;;;;;4998591;28;20198;-88
2022/04/14 05:05:26;;;;;;;;;;;11.20;99.90;;;;;;4994823;28;19913;-90
2022/04/14 05:07:52;;;;;;;;;;;11.20;99.90;;;;;;4990816;28;19921;-88
2022/04/14 05:10:18;;;;;;;;;;;11.10;99.90;;;;;;4995298;28;19964;-89
2022/04/14 05:12:43;;;;;;;;;;;11.20;99.90;;;;;;4993411;28;19988;-88
2022/04/14 05:15:09;;;;;;;;;;;11.20;99.90;;;;;;4992196;28;19921;-89
2022/04/14 05:17:35;;;;;;;;;;;11.10;99.90;;;;;;4993182;28;20418;-89
2022/04/14 05:20:02;;;;;;;;;;;11.10;99.90;;;;;;4995592;28;19945;-89
2022/04/14 05:22:27;;;;;;;;;;;11.10;99.90;;;;;;4991098;28;20293;-88
2022/04/14 05:24:53;;;;;;;;;;;11.10;99.90;;;;;;4991785;28;19910;-88
2022/04/14 05:27:18;;;;;;;;;;;11.00;99.90;;;;;;4991850;28;20475;-88
2022/04/14 05:29:44;;;;;;;;;;;11.10;99.90;;;;;;4990813;28;19910;-89
2022/04/14 05:32:10;;;;;;;;;;;11.00;99.90;;;;;;4994014;28;19917;-89
2022/04/14 05:34:35;;;;;;;;;;;11.00;99.90;;;;;;4991781;28;19997;-89
2022/04/14 05:37:01;;;;;;;;;;;11.00;99.90;;;;;;4998987;28;19913;-88
2022/04/14 05:39:26;;;;;;;;;;;11.10;99.90;;;;;;4995403;28;19914;-89
2022/04/14 05:41:52;;;;;;;;;;;11.10;99.90;;;;;;4996616;28;20004;-88
2022/04/14 05:44:18;;;;;;;;;;;11.10;99.90;;;;;;4991786;28;19909;-89
2022/04/14 05:46:43;;;;;;;;;;;11.10;99.90;;;;;;4992878;28;20106;-89
2022/04/14 05:49:09;;;;;;;;;;;11.20;99.90;;;;;;4991720;28;19914;-90
2022/04/14 05:51:35;;;;;;;;;;;11.20;99.90;;;;;;4990187;28;20322;-90
2022/04/14 05:54:00;;;;;;;;;;;11.20;99.90;;;;;;4990073;28;19910;-90
2022/04/14 05:56:26;;;;;;;;;;;11.20;99.90;;;;;;4990226;28;20276;-91
2022/04/14 05:58:52;;;;;;;;;;;11.30;99.90;;;;;;4988350;28;20444;-90
2022/04/14 06:01:18;;;;;;;;;;;11.30;99.90;;;;;;4988529;28;20007;-89
2022/04/14 06:03:44;;;;;;;;;;;11.40;99.90;;;;;;4989673;28;19973;-89
2022/04/14 06:06:11;;;;;;;;;;;11.40;99.90;;;;;;4988382;28;20418;-91
2022/04/14 06:08:37;;;;;;;;;;;11.50;99.90;;;;;;4989412;28;19966;-91
2022/04/14 06:11:05;;;;;;;;;;;11.50;99.90;;;;;;4989248;28;19945;-91
2022/04/14 06:13:31;;;;;;;;;;;11.60;99.90;;;;;;4990204;28;20371;-89
2022/04/14 06:15:56;;;;;;;;;;;11.70;99.90;;;;;;4991200;28;19910;-90
2022/04/14 06:18:22;;;;;;;;;;;11.70;99.90;;;;;;4989885;28;19910;-90
2022/04/14 06:20:53;;;;;;;;;;;11.80;99.90;;;;;;4991015;28;19910;-90
2022/04/14 06:23:19;;;;;;;;;;;11.80;99.90;;;;;;4992293;28;19910;-90
2022/04/14 06:25:49;;;;;;;;;;;11.90;99.90;;;;;;4998563;28;19910;-89
2022/04/14 06:28:16;;;;;;;;;;;12.00;99.90;;;;;;4989743;28;19965;-89
2022/04/14 06:30:42;;;;;;;;;;;12.10;99.90;;;;;;4991347;28;20068;-92
2022/04/14 06:33:07;;;;;;;;;;;12.20;99.90;;;;;;4990874;28;20116;-89
2022/04/14 06:35:33;;;;;;;;;;;12.30;99.90;;;;;;4990898;28;19914;-89
2022/04/14 06:37:59;;;;;;;;;;;12.40;99.90;;;;;;4990698;28;19918;-91
2022/04/14 06:40:24;;;;;;;;;;;12.50;99.90;;;;;;4989581;28;19937;-89
2022/04/14 06:42:50;;;;;;;;;;;12.60;99.90;;;;;;4989704;28;19930;-89
2022/04/14 06:45:16;;;;;;;;;;;12.50;99.90;;;;;;4989923;28;20004;-91
2022/04/14 06:47:41;;;;;;;;;;;12.60;99.90;;;;;;4989277;28;20326;-89
2022/04/14 06:50:07;;;;;;;;;;;12.70;99.90;;;;;;4990984;28;20518;-90
2022/04/14 06:52:33;;;;;;;;;;;12.90;99.90;;;;;;4990864;28;19917;-90
2022/04/14 06:54:59;;;;;;;;;;;12.90;99.90;;;;;;4990635;28;19913;-89
2022/04/14 06:57:25;;;;;;;;;;;13.00;99.90;;;;;;4990199;28;19914;-91
2022/04/14 06:59:50;;;;;;;;;;;13.10;99.90;;;;;;4987274;28;20081;-90
2022/04/14 07:02:16;;;;;;;;;;;13.20;99.90;;;;;;4993080;28;19926;-90
2022/04/14 07:04:41;;;;;;;;;;;13.30;99.90;;;;;;4993250;28;20366;-90
2022/04/14 07:07:07;;;;;;;;;;;13.30;99.90;;;;;;4993202;28;19917;-91
2022/04/14 07:09:33;;;;;;;;;;;13.40;99.90;;;;;;4993015;28;20394;-91
2022/04/14 07:12:00;;;;;;;;;;;13.30;99.90;;;;;;4993199;28;19956;-90
2022/04/14 07:14:27;;;;;;;;;;;13.40;99.90;;;;;;4994627;28;20259;-90
2022/04/14 07:16:52;;;;;;;;;;;13.50;99.90;;;;;;4992815;28;20323;-90
2022/04/14 07:19:18;;;;;;;;;;;13.60;99.90;;;;;;4994254;28;19910;-90
2022/04/14 07:21:44;;;;;;;;;;;13.70;99.90;;;;;;4993114;28;19964;-90
2022/04/14 07:24:10;;;;;;;;;;;13.70;99.90;;;;;;4994310;28;19910;-92
2022/04/14 07:26:36;;;;;;;;;;;13.80;99.90;;;;;;4993155;28;19918;-90
2022/04/14 07:29:02;;;;;;;;;;;14.00;99.90;;;;;;4993029;28;19914;-91
2022/04/14 07:31:27;;;;;;;;;;;14.10;99.90;;;;;;4992771;28;19917;-89
2022/04/14 07:33:53;;;;;;;;;;;14.20;99.90;;;;;;4994179;28;20017;-90
2022/04/14 07:36:21;;;;;;;;;;;14.20;99.90;;;;;;4992748;28;19909;-90
2022/04/14 07:38:47;;;;;;;;;;;14.20;99.90;;;;;;4992684;28;19972;-91
2022/04/14 07:41:15;;;;;;;;;;;14.20;99.90;;;;;;4992601;28;19996;-89
2022/04/14 07:43:41;;;;;;;;;;;14.30;99.90;;;;;;4994106;28;19909;-90
2022/04/14 07:46:06;;;;;;;;;;;14.40;99.90;;;;;;4993691;28;20274;-89
2022/04/14 07:48:32;;;;;;;;;;;14.50;99.90;;;;;;4994016;28;20003;-89
2022/04/14 07:50:59;;;;;;;;;;;14.60;99.90;;;;;;4992599;28;19910;-91
2022/04/14 07:53:25;;;;;;;;;;;14.70;99.90;;;;;;4994056;28;19910;-92
2022/04/14 07:55:50;;;;;;;;;;;14.80;99.90;;;;;;4993734;28;20023;-90
2022/04/14 07:58:16;;;;;;;;;;;14.90;99.90;;;;;;4992421;28;19910;-90
2022/04/14 08:00:42;;;;;;;;;;;15.00;99.90;;;;;;4993761;28;19957;-90
2022/04/14 08:03:07;;;;;;;;;;;15.10;99.90;;;;;;4993407;28;19910;-92
2022/04/14 08:05:45;;;;;;;;;;;15.20;99.90;;;;;;4992488;28;20302;-89
2022/04/14 08:08:12;;;;;;;;;;;15.30;99.90;;;;;;4992307;28;19953;-90
2022/04/14 08:10:41;;;;;;;;;;;15.40;99.90;;;;;;4992413;28;19910;-91
2022/04/14 08:13:07;;;;;;;;;;;15.50;99.90;;;;;;4992479;28;19910;-90
2022/04/14 08:15:33;;;;;;;;;;;15.60;99.90;;;;;;4993740;28;19916;-91
2022/04/14 08:17:59;;;;;;;;;;;15.70;99.90;;;;;;4997161;28;19910;-92
2022/04/14 08:20:25;;;;;;;;;;;15.80;99.90;;;;;;4989970;28;20534;-92
2022/04/14 08:22:55;;;;;;;;;;;15.90;99.90;;;;;;4993290;28;19952;-91
2022/04/14 08:25:22;;;;;;;;;;;16.00;99.90;;;;;;4993469;28;19910;-92
2022/04/14 08:27:48;;;;;;;;;;;16.00;99.90;;;;;;4993671;28;19933;-90
2022/04/14 08:30:14;;;;;;;;;;;16.10;99.90;;;;;;4993252;28;19917;-92
2022/04/14 08:32:40;;;;;;;;;;;16.10;99.90;;;;;;4991932;28;19942;-90
2022/04/14 08:35:06;;;;;;;;;;;16.20;99.90;;;;;;4992253;28;19965;-89
2022/04/14 08:37:31;;;;;;;;;;;16.30;99.90;;;;;;4991919;28;19967;-91
2022/04/14 08:39:57;;;;;;;;;;;16.40;99.90;;;;;;4993024;28;19910;-90
2022/04/14 08:42:25;;;;;;;;;;;16.50;99.90;;;;;;4991594;28;19909;-91
2022/04/14 08:44:57;;;;;;;;;;;16.60;99.90;;;;;;4992828;28;19917;-92
2022/04/14 08:47:24;;;;;;;;;;;16.70;99.90;;;;;;4991319;28;19929;-92
2022/04/14 08:49:50;;;;;;;;;;;16.70;99.90;;;;;;4991615;28;19910;-91
2022/04/14 08:52:17;;;;;;;;;;;16.80;99.90;;;;;;4993014;28;19914;-91
2022/04/14 08:54:46;;;;;;;;;;;16.90;99.90;;;;;;4991602;28;19910;-91
2022/04/14 08:57:13;;;;;;;;;;;17.00;99.90;;;;;;4991419;28;19921;-91
2022/04/14 08:59:43;;;;;;;;;;;17.10;99.90;;;;;;4991244;28;19910;-91
2022/04/14 09:02:13;;;;;;;;;;;17.10;99.90;;;;;;4992315;28;19916;-90
2022/04/14 09:04:41;;;;;;;;;;;17.10;99.90;;;;;;4991124;28;19965;-91
2022/04/14 09:07:06;;;;;;;;;;;17.30;99.90;;;;;;4992195;28;19958;-90
2022/04/14 09:09:32;;;;;;;;;;;17.30;99.90;;;;;;4991065;28;19972;-90
2022/04/14 09:11:57;;;;;;;;;;;17.40;99.90;;;;;;4992335;28;19910;-92
2022/04/14 09:14:23;;;;;;;;;;;17.60;99.90;;;;;;4991372;28;19910;-92
2022/04/14 09:16:48;;;;;;;;;;;17.60;99.90;;;;;;4990792;28;20290;-89
2022/04/14 09:19:15;;;;;;;;;;;17.60;99.90;;;;;;4991095;28;19910;-90
2022/04/14 09:21:58;;;;;;;;;;;17.70;99.90;;;;;;4990963;28;19960;-90
2022/04/14 09:24:39;;;;;;;;;;;17.80;99.90;;;;;;4990742;28;20004;-90
2022/04/14 09:27:05;;;;;;;;;;;17.80;99.90;;;;;;4990764;28;20064;-92
2022/04/14 09:29:31;;;;;;;;;;;17.90;99.90;;;;;;4992610;28;20029;-91
2022/04/14 09:31:56;;;;;;;;;;;18.00;99.90;;;;;;4990559;28;19910;-90
2022/04/14 09:34:51;;;;;;;;;;;18.00;99.90;;;;;;4990862;28;19909;-92
2022/04/14 09:37:17;;;;;;;;;;;18.10;99.90;;;;;;4991014;28;19910;-92
2022/04/14 09:39:49;;;;;;;;;;;18.20;99.90;;;;;;4990792;28;20321;-92
2022/04/14 09:42:15;;;;;;;;;;;18.30;99.90;;;;;;4990687;28;19910;-92
2022/04/14 09:44:40;;;;;;;;;;;18.30;99.90;;;;;;4990468;28;19956;-92
2022/04/14 09:47:06;;;;;;;;;;;18.40;99.90;;;;;;4990120;28;19928;-90
2022/04/14 09:49:39;;;;;;;;;;;18.40;99.90;;;;;;4990253;28;19913;-90
2022/04/14 09:52:06;;;;;;;;;;;18.50;99.90;;;;;;4991844;28;19914;-90
2022/04/14 09:54:32;;;;;;;;;;;18.60;99.90;;;;;;4990782;28;19918;-90
2022/04/14 09:56:57;;;;;;;;;;;18.70;99.90;;;;;;4990426;28;19947;-91
2022/04/14 09:59:28;;;;;;;;;;;18.70;99.90;;;;;;4990284;28;20338;-91
2022/04/14 10:02:12;;;;;;;;;;;18.80;99.90;;;;;;4989669;28;20302;-92
2022/04/14 10:04:39;;;;;;;;;;;18.90;99.90;;;;;;4990216;28;19910;-92
2022/04/14 10:07:07;;;;;;;;;;;18.90;99.90;;;;;;4991190;28;19918;-93
2022/04/14 10:09:35;;;;;;;;;;;18.90;99.90;;;;;;4992282;28;19922;-91
2022/04/14 10:12:01;;;;;;;;;;;19.00;99.90;;;;;;4999988;28;20052;-92
2022/04/14 10:14:26;;;;;;;;;;;19.00;99.90;;;;;;4989810;28;19914;-86
2022/04/14 10:16:52;;;;;;;;;;;19.10;99.90;;;;;;4991013;28;19910;-85
2022/04/14 10:19:18;;;;;;;;;;;19.20;99.90;;;;;;4991111;28;19917;-86
2022/04/14 10:21:45;;;;;;;;;;;19.30;99.90;;;;;;4990834;28;19909;-86
2022/04/14 10:24:14;;;;;;;;;;;19.30;99.90;;;;;;4991213;28;19914;-86
2022/04/14 10:26:40;;;;;;;;;;;19.40;99.90;;;;;;4996082;28;19917;-86
2022/04/14 10:29:06;;;;;;;;;;;19.30;99.90;;;;;;4991086;28;19920;-86
2022/04/14 10:31:40;;;;;;;;;;;19.50;99.90;;;;;;4990530;28;20449;-86
2022/04/14 10:34:07;;;;;;;;;;;19.60;99.90;;;;;;4992091;28;19937;-86
2022/04/14 10:36:38;;;;;;;;;;;19.60;99.90;;;;;;4990804;28;20410;-85
2022/04/14 10:39:04;;;;;;;;;;;19.70;99.90;;;;;;4990959;28;19956;-86
2022/04/14 10:41:32;;;;;;;;;;;19.80;99.90;;;;;;4991121;28;19957;-86
2022/04/14 10:44:02;;;;;;;;;;;19.80;99.90;;;;;;4990093;28;20240;-86
2022/04/14 10:46:31;;;;;;;;;;;19.90;99.90;;;;;;4990403;28;19914;-85
2022/04/14 10:49:13;;;;;;;;;;;19.80;99.90;;;;;;4991014;28;19921;-86
2022/04/14 10:51:39;;;;;;;;;;;19.90;99.90;;;;;;4990955;28;20357;-85
2022/04/14 10:54:06;;;;;;;;;;;20.00;99.90;;;;;;4990668;28;19910;-85
2022/04/14 10:56:34;;;;;;;;;;;20.10;99.90;;;;;;4990937;28;20343;-86
2022/04/14 10:59:03;;;;;;;;;;;20.20;99.90;;;;;;4990821;28;20048;-86
2022/04/14 11:01:52;;;;;;;;;;;20.20;99.90;;;;;;4990230;28;20378;-85
2022/04/14 11:04:21;;;;;;;;;;;20.20;99.90;;;;;;4989236;28;19910;-86
2022/04/14 11:06:47;;;;;;;;;;;20.40;99.90;;;;;;4989300;28;19933;-92
2022/04/14 11:09:31;;;;;;;;;;;20.50;99.90;;;;;;4990861;28;19937;-89
2022/04/14 11:12:00;;;;;;;;;;;20.50;99.90;;;;;;4989342;28;19926;-90
2022/04/14 11:14:26;;;;;;;;;;;20.50;99.90;;;;;;4990795;28;19914;-92
2022/04/14 11:16:52;;;;;;;;;;;20.60;99.90;;;;;;4990365;28;20305;-91
2022/04/14 11:19:24;;;;;;;;;;;20.60;99.90;;;;;;4989126;28;19910;-90
2022/04/14 11:22:03;;;;;;;;;;;20.70;99.90;;;;;;4989825;28;19910;-92
2022/04/14 11:24:40;;;;;;;;;;;20.80;99.90;;;;;;4989278;28;20294;-91
2022/04/14 11:27:15;;;;;;;;;;;20.90;99.90;;;;;;4990782;28;19917;-90
2022/04/14 11:29:48;;;;;;;;;;;21.10;99.90;;;;;;4990509;28;20157;-93
2022/04/14 11:32:14;;;;;;;;;;;21.10;99.90;;;;;;4989274;28;19910;-90
2022/04/14 11:34:40;;;;;;;;;;;21.30;99.90;;;;;;4989397;28;20377;-91
2022/04/14 11:37:25;;;;;;;;;;;21.30;99.90;;;;;;4989188;28;19910;-92
2022/04/14 11:40:09;;;;;;;;;;;21.50;99.90;;;;;;4990447;28;19910;-89
2022/04/14 11:42:35;;;;;;;;;;;21.40;99.90;;;;;;4989061;28;19910;-90
2022/04/14 11:45:01;;;;;;;;;;;21.40;99.90;;;;;;4992035;28;19910;-91
2022/04/14 11:47:27;;;;;;;;;;;21.40;99.90;;;;;;4992339;28;20359;-92
2022/04/14 11:49:53;;;;;;;;;;;21.30;99.90;;;;;;4993940;28;19910;-93
2022/04/14 11:52:20;;;;;;;;;;;21.20;99.90;;;;;;4994380;28;19910;-91
2022/04/14 11:54:46;;;;;;;;;;;21.30;99.90;;;;;;4993733;28;19910;-91
2022/04/14 11:57:18;;;;;;;;;;;21.20;99.90;;;;;;4992584;28;19920;-90
2022/04/14 11:59:44;;;;;;;;;;;21.20;99.90;;;;;;4992324;28;19909;-91
2022/04/14 12:02:22;;;;;;;;;;;21.30;99.90;;;;;;4994964;28;19910;-90
2022/04/14 12:04:49;;;;;;;;;;;21.50;99.90;;;;;;4994684;28;19910;-92
2022/04/14 12:07:15;;;;;;;;;;;21.70;99.90;;;;;;4992221;28;19924;-90
2022/04/14 12:09:41;;;;;;;;;;;21.80;99.90;;;;;;4993818;28;19929;-91
2022/04/14 12:12:11;;;;;;;;;;;21.90;99.90;;;;;;4993804;28;20409;-91
2022/04/14 12:14:44;;;;;;;;;;;21.90;99.90;;;;;;4993785;28;19909;-90
2022/04/14 12:17:09;;;;;;;;;;;21.90;99.90;;;;;;4992101;28;20375;-91
2022/04/14 12:19:42;;;;;;;;;;;21.50;99.90;;;;;;4993074;28;19910;-92
2022/04/14 12:22:07;;;;;;;;;;;21.40;99.90;;;;;;4992078;28;19910;-92
2022/04/14 12:24:34;;;;;;;;;;;21.60;99.90;;;;;;4992023;28;19910;-90
2022/04/14 12:26:59;;;;;;;;;;;21.80;99.90;;;;;;4993287;28;19965;-91
2022/04/14 12:29:26;;;;;;;;;;;22.00;99.90;;;;;;4991785;28;19949;-90
2022/04/14 12:31:55;;;;;;;;;;;22.30;99.90;;;;;;4991403;28;19917;-91
2022/04/14 12:34:22;;;;;;;;;;;22.50;99.90;;;;;;4993640;28;19984;-90
2022/04/14 12:36:48;;;;;;;;;;;22.60;99.90;;;;;;4993643;28;19917;-91
2022/04/14 12:39:18;;;;;;;;;;;22.60;99.90;;;;;;4991613;28;20278;-91
2022/04/14 12:41:44;;;;;;;;;;;22.70;99.90;;;;;;4991659;28;19910;-91
2022/04/14 12:44:14;;;;;;;;;;;22.70;99.90;;;;;;4992678;28;19917;-90
2022/04/14 12:46:41;;;;;;;;;;;22.80;99.90;;;;;;4991039;28;19941;-91
2022/04/14 12:49:08;;;;;;;;;;;22.90;99.90;;;;;;4992748;28;19916;-91
2022/04/14 12:51:38;;;;;;;;;;;23.00;99.90;;;;;;4991684;28;19909;-92
2022/04/14 12:54:04;;;;;;;;;;;23.20;99.90;;;;;;4991555;28;20002;-93
2022/04/14 12:56:31;;;;;;;;;;;23.50;99.90;;;;;;4992692;28;19909;-91
2022/04/14 12:59:06;;;;;;;;;;;23.70;99.90;;;;;;4992684;28;19910;-92
2022/04/14 13:01:47;;;;;;;;;;;24.00;99.90;;;;;;4991249;28;19913;-93
2022/04/14 13:04:13;;;;;;;;;;;24.40;99.90;;;;;;4991474;28;20036;-92
2022/04/14 13:06:39;;;;;;;;;;;24.70;99.90;;;;;;4991479;28;20399;-94
2022/04/14 13:09:14;;;;;;;;;;;25.00;99.90;;;;;;4990544;28;20394;-92
2022/04/14 13:11:45;;;;;;;;;;;25.30;98.70;;;;;;4991399;28;19918;-93
2022/04/14 13:14:17;;;;;;;;;;;25.50;98.30;;;;;;4992579;28;19937;-93
2022/04/14 13:16:44;;;;;;;;;;;25.90;99.90;;;;;;4990816;28;19953;-93
2022/04/14 13:19:10;;;;;;;;;;;26.10;98.40;;;;;;4991029;28;20008;-92
2022/04/14 13:21:36;;;;;;;;;;;26.00;99.90;;;;;;4991059;28;20017;-92
2022/04/14 13:24:02;;;;;;;;;;;26.00;98.40;;;;;;4990712;28;19988;-92
2022/04/14 13:26:27;;;;;;;;;;;26.20;99.60;;;;;;4990599;28;19916;-93
2022/04/14 13:28:53;;;;;;;;;;;26.40;98.30;;;;;;4990976;28;19988;-93
2022/04/14 13:31:18;;;;;;;;;;;26.40;98.90;;;;;;4990927;28;20276;-93
2022/04/14 13:33:44;;;;;;;;;;;26.70;99.90;;;;;;4990808;28;19909;-91
2022/04/14 13:36:09;;;;;;;;;;;26.60;97.10;;;;;;4991927;28;19914;-92
2022/04/14 13:38:35;;;;;;;;;;;26.00;97.20;;;;;;4990806;28;19910;-91
2022/04/14 13:41:01;;;;;;;;;;;25.30;97.80;;;;;;4991999;28;20386;-92
2022/04/14 13:43:26;;;;;;;;;;;24.90;98.10;;;;;;4991712;28;19918;-91
2022/04/14 13:45:52;;;;;;;;;;;24.80;98.50;;;;;;4990347;28;19948;-92
2022/04/14 13:48:17;;;;;;;;;;;25.20;98.20;;;;;;4990803;28;19924;-92
2022/04/14 13:50:45;;;;;;;;;;;25.30;97.30;;;;;;4990618;28;20434;-93
2022/04/14 13:53:13;;;;;;;;;;;24.90;98.20;;;;;;4992646;28;19910;-92
2022/04/14 13:55:39;;;;;;;;;;;24.50;98.50;;;;;;4995360;28;19910;-93
2022/04/14 13:58:05;;;;;;;;;;;24.90;99.50;;;;;;4991749;28;19910;-92
2022/04/14 14:00:30;;;;;;;;;;;25.80;98.20;;;;;;4990631;28;19909;-92
2022/04/14 14:02:56;;;;;;;;;;;26.90;98.20;;;;;;4991272;28;19964;-93
2022/04/14 14:05:21;;;;;;;;;;;27.80;95.60;;;;;;4991609;28;19910;-94
2022/04/14 14:07:48;;;;;;;;;;;28.70;96.30;;;;;;4989159;28;19969;-93
2022/04/14 14:10:14;;;;;;;;;;;29.70;94.30;;;;;;4990027;28;19922;-93
2022/04/14 14:12:40;;;;;;;;;;;30.40;93.10;;;;;;4990289;28;20398;-92
2022/04/14 14:15:06;;;;;;;;;;;31.50;92.00;;;;;;4991315;28;19910;-93